Etusivu
METAR-TAF:

METAR-TAF

Lentoasemat :

Liepāja, Latvia

Leveyspiiri: 56-31N, Pituuspiiri: 021-05E, korkeus merenpinnasta: 5 m

Tämänhetkinen sää

Tämä raportti tehtiin 19 minuuttia sitten, kello 12.20 UTC
Tuuli 2 kn eri suunnista
Lämpötila 13°C
Kosteus 67%
Ilmanpaine 1020 hPa
Näkyvyys 10 km tai enemmän

METAR: EVLA 191220Z AUTO VRB02KT 9999 FEW003/// BKN029/// 13/07 Q1020

Aika: 15:39 (12:39 UTC)

Sääennuste

Tämä raportti tehtiin 1 tunti ja 38 minuuttia sitten, kello 11.01 UTC
Ennuste voimassa 19. päivästä klo 12 UTC - 20. päivään klo 12 UTC
Tuuli 5 kn pohjoisesta
Näkyvyys 10 km tai enemmän
Hajanaisia pilviä 3000 ft:n korkeudessa
Ajoittain
19. päivästä klo 18 UTC - 19. päivään klo 21 UTC
Näkyvyys: 1500 m
utua
Ajoittain
19. päivästä klo 21 UTC - 20. päivään klo 06 UTC
Näkyvyys: 0600 m
Hajonneita pilviä 200 ft:n korkeudessa
sumua

TAF: EVLA 191101Z 1912/2012 36005KT 9999 SCT030 TEMPO 1918/1921 1500 BR TEMPO 1921/2006 0600 FG BKN002

Säähavainnot ja -ennusteet yli 4000 lentoasemalta (METAR- ja TAF-raportit).

Käytössä olevat sääasemat on merkitty karttaan keltaisilla ja punaisilla pisteillä.

Aseta hiiri pisteen päälle nähdäksesi sääaseman nimen.

Klikkaa sitten nähdäksesi säähavainnot ja -ennusteet.

Kartan vaihtaminen: klikkaa mustalla rastilla varustettuja vihreitä pisteitä, niin voit zoomata sisään; viivalla varustettua vihreää pistettä, niin voit zoomata ulos tai vihreitä nuolia, niin pääset viereisille kartoille.


METAR-TAF: